Terminal Aerodrome Forecast
Issued by NWS

Home | Current Version | Previous Version | Text Only | Print | Product List | Glossary On
Versions: 1 2 3 4 5 6 7 8 9 10 11 12 13 14 15 16 17 18
639
FTUS43 KIND 102325
TAFLAF
TAF
KLAF 102325Z 1100/1124 28008KT P6SM SCT030 BKN100
      TEMPO 1100/1103 BKN030 BKN100
     FM110600 30005KT P6SM SCT100
     FM111600 30007KT P6SM FEW030 BKN250
      AMD LTD TO CLD VIS AND WIND 1102/1114=

USA.gov is the U.S. government's official web portal to all federal, state and local government web resources and services.